createdAt,value
2023-04-27T00:00:18.100Z,85.60
2023-04-27T00:01:21.076Z,85.60
2023-04-27T00:02:25.140Z,86.40
2023-04-27T00:03:28.999Z,85.40
2023-04-27T00:04:32.901Z,86.00
2023-04-27T00:05:39.852Z,86.00
2023-04-27T00:06:44.800Z,86.00
2023-04-27T00:07:47.347Z,85.10
2023-04-27T00:08:51.338Z,86.90
2023-04-27T00:09:53.803Z,87.00
2023-04-27T00:10:59.961Z,86.90
2023-04-27T00:12:02.796Z,86.00
2023-04-27T00:13:07.021Z,87.00
2023-04-27T00:14:09.872Z,87.00
2023-04-27T00:15:14.906Z,87.30
2023-04-27T00:16:17.932Z,87.20
2023-04-27T00:17:22.095Z,87.60
2023-04-27T00:18:25.729Z,87.70
2023-04-27T00:19:30.702Z,88.00
2023-04-27T00:20:34.118Z,88.30
2023-04-27T00:21:39.003Z,88.00
2023-04-27T00:22:42.070Z,87.90
2023-04-27T00:23:46.307Z,88.60
2023-04-27T00:24:49.031Z,88.40
2023-04-27T00:25:52.623Z,88.80
2023-04-27T00:26:55.540Z,89.00
2023-04-27T00:27:59.659Z,89.20
2023-04-27T00:29:02.261Z,89.20
2023-04-27T00:30:07.362Z,89.30
2023-04-27T00:31:12.132Z,89.20
2023-04-27T00:32:18.626Z,89.10
2023-04-27T00:33:22.165Z,89.40
2023-04-27T00:34:26.217Z,89.60
2023-04-27T00:35:29.304Z,90.30
2023-04-27T00:36:35.755Z,90.00
2023-04-27T00:37:38.739Z,90.00
2023-04-27T00:38:43.504Z,90.20
2023-04-27T00:39:48.537Z,90.20
2023-04-27T00:40:52.424Z,90.20
2023-04-27T00:41:55.705Z,90.40
2023-04-27T00:42:59.667Z,90.50
2023-04-27T00:44:02.381Z,90.60
2023-04-27T00:45:07.260Z,90.70
2023-04-27T00:46:13.162Z,90.80
2023-04-27T00:47:18.212Z,90.90
2023-04-27T00:48:21.873Z,90.60
2023-04-27T00:49:27.783Z,90.70
2023-04-27T00:50:30.724Z,90.80
2023-04-27T00:51:34.439Z,91.30
2023-04-27T00:52:39.938Z,91.50
2023-04-27T00:53:43.612Z,91.50
2023-04-27T00:54:48.968Z,91.90
2023-04-27T00:55:52.699Z,91.90
2023-04-27T00:56:55.995Z,91.80
2023-04-27T00:57:59.653Z,91.90
2023-04-27T00:59:02.313Z,91.90
2023-04-27T01:00:11.059Z,92.00
2023-04-27T01:01:17.116Z,92.20
2023-04-27T01:02:21.022Z,92.20
2023-04-27T01:03:23.955Z,92.00
2023-04-27T01:04:28.956Z,92.30
2023-04-27T01:05:34.471Z,92.40
2023-04-27T01:06:39.961Z,92.60
2023-04-27T01:07:44.905Z,92.90
2023-04-27T01:08:47.552Z,92.80
2023-04-27T01:09:51.463Z,92.90
2023-04-27T01:10:54.260Z,92.90
2023-04-27T01:11:58.686Z,93.00
2023-04-27T01:13:03.403Z,93.10
2023-04-27T01:14:08.864Z,93.10
2023-04-27T01:15:11.939Z,93.20
2023-04-27T01:16:19.051Z,93.20
2023-04-27T01:17:22.268Z,93.10
2023-04-27T01:18:25.976Z,93.20
2023-04-27T01:19:29.103Z,93.60
2023-04-27T01:20:35.029Z,93.40
2023-04-27T01:21:38.275Z,93.40
2023-04-27T01:22:44.906Z,93.50
2023-04-27T01:23:49.336Z,93.40
2023-04-27T01:24:53.753Z,93.90
2023-04-27T01:25:56.826Z,93.50
2023-04-27T01:27:01.805Z,93.70
2023-04-27T01:28:05.437Z,93.60
2023-04-27T01:29:09.152Z,93.70
2023-04-27T01:30:11.973Z,93.70
2023-04-27T01:31:15.924Z,93.80
2023-04-27T01:32:18.490Z,93.80
2023-04-27T01:33:22.629Z,93.90
2023-04-27T01:34:25.741Z,94.00
2023-04-27T01:35:29.718Z,94.00
2023-04-27T01:36:36.215Z,94.00
2023-04-27T01:37:40.864Z,94.20
2023-04-27T01:38:44.519Z,94.30
2023-04-27T01:39:51.416Z,94.30
2023-04-27T01:40:55.469Z,94.40
2023-04-27T01:41:59.120Z,94.30
2023-04-27T01:43:02.159Z,94.50
2023-04-27T01:44:07.531Z,94.50
2023-04-27T01:45:11.742Z,94.70
2023-04-27T01:46:16.783Z,94.70
2023-04-27T01:47:19.668Z,94.90
2023-04-27T01:48:23.994Z,94.90
2023-04-27T01:49:29.878Z,95.20
2023-04-27T01:50:33.856Z,95.00
2023-04-27T01:51:39.412Z,95.00
2023-04-27T01:52:43.207Z,94.90
2023-04-27T01:53:46.258Z,94.90
2023-04-27T01:54:51.543Z,94.90
2023-04-27T01:55:59.690Z,94.60
2023-04-27T01:57:03.412Z,94.90
2023-04-27T01:58:06.392Z,95.00
2023-04-27T01:59:10.651Z,95.20
2023-04-27T02:00:15.232Z,95.10
2023-04-27T02:01:25.731Z,95.20
2023-04-27T02:02:28.827Z,95.30
2023-04-27T02:03:32.730Z,95.60
2023-04-27T02:04:38.057Z,95.50
2023-04-27T02:05:42.104Z,95.50
2023-04-27T02:06:44.951Z,95.90
2023-04-27T02:07:52.316Z,95.60
2023-04-27T02:08:59.553Z,95.60
2023-04-27T02:10:04.634Z,95.60
2023-04-27T02:11:09.162Z,95.80
2023-04-27T02:12:12.223Z,95.80
2023-04-27T02:13:16.544Z,95.60
2023-04-27T02:14:19.305Z,96.00
2023-04-27T02:15:24.169Z,96.10
2023-04-27T02:16:27.392Z,96.10
2023-04-27T02:17:34.419Z,95.90
2023-04-27T02:18:38.638Z,96.10
2023-04-27T02:19:46.782Z,96.10
2023-04-27T02:20:49.933Z,96.10
2023-04-27T02:21:56.212Z,95.70
2023-04-27T02:22:58.880Z,96.00
2023-04-27T02:24:03.609Z,96.10
2023-04-27T02:25:09.482Z,96.20
2023-04-27T02:26:19.469Z,96.20
2023-04-27T02:27:22.164Z,96.10
2023-04-27T02:28:27.150Z,96.20
2023-04-27T02:29:33.604Z,96.20
2023-04-27T02:31:12.979Z,96.30
2023-04-27T02:32:16.561Z,96.30
2023-04-27T02:33:20.210Z,96.20
2023-04-27T02:34:22.844Z,96.20
2023-04-27T02:35:26.558Z,96.30
2023-04-27T02:36:29.696Z,96.30
2023-04-27T02:37:33.324Z,96.30
2023-04-27T02:38:35.988Z,96.30
2023-04-27T02:39:39.753Z,96.40
2023-04-27T02:40:46.750Z,96.50
2023-04-27T02:41:52.748Z,96.60
2023-04-27T02:42:55.755Z,96.60
2023-04-27T02:43:59.453Z,96.60
2023-04-27T02:45:02.496Z,96.60
2023-04-27T02:46:06.885Z,96.70
2023-04-27T02:47:10.128Z,96.80
2023-04-27T02:48:14.267Z,96.80
2023-04-27T02:49:17.588Z,96.90
2023-04-27T02:50:21.519Z,97.00
2023-04-27T02:51:23.989Z,97.00
2023-04-27T02:52:28.534Z,97.00
2023-04-27T02:53:31.696Z,97.00
2023-04-27T02:54:35.412Z,97.00
2023-04-27T02:55:38.738Z,97.10
2023-04-27T02:56:44.159Z,97.00
2023-04-27T02:57:46.864Z,97.00
2023-04-27T02:58:50.725Z,97.60
2023-04-27T02:59:53.455Z,97.20
2023-04-27T03:00:57.835Z,97.20
2023-04-27T03:02:00.512Z,97.30
2023-04-27T03:03:04.361Z,97.40
2023-04-27T03:04:08.272Z,97.70
2023-04-27T03:05:13.104Z,97.80
2023-04-27T03:06:16.710Z,97.30
2023-04-27T03:07:20.650Z,97.30
2023-04-27T03:08:23.457Z,97.50
2023-04-27T03:09:27.365Z,97.40
2023-04-27T03:10:31.864Z,97.40
2023-04-27T03:11:37.457Z,97.60
2023-04-27T03:12:41.785Z,97.50
2023-04-27T03:13:45.440Z,97.30
2023-04-27T03:14:48.209Z,97.30
2023-04-27T03:15:51.869Z,97.30
2023-04-27T03:16:57.683Z,97.20
2023-04-27T03:18:01.287Z,97.30
2023-04-27T03:19:04.028Z,97.30
2023-04-27T03:20:12.784Z,97.30
2023-04-27T03:21:17.936Z,97.50
2023-04-27T03:22:21.630Z,97.50
2023-04-27T03:23:24.257Z,97.60
2023-04-27T03:24:29.608Z,97.60
2023-04-27T03:25:32.572Z,97.50
2023-04-27T03:26:36.562Z,97.60
2023-04-27T03:27:43.464Z,97.70
2023-04-27T03:28:48.696Z,97.70
2023-04-27T03:29:53.657Z,97.60
2023-04-27T03:30:57.406Z,97.60
2023-04-27T03:32:00.452Z,97.70
2023-04-27T03:33:04.390Z,97.70
2023-04-27T03:34:07.354Z,97.70
2023-04-27T03:35:11.030Z,97.40
2023-04-27T03:36:15.570Z,97.60
2023-04-27T03:37:18.424Z,97.70
2023-04-27T03:38:21.862Z,97.70
2023-04-27T03:39:25.720Z,97.70
2023-04-27T03:40:28.380Z,97.80
2023-04-27T03:41:32.403Z,97.80
2023-04-27T03:42:35.450Z,97.70
2023-04-27T03:43:40.887Z,97.80
2023-04-27T03:44:43.917Z,97.80
2023-04-27T03:45:47.812Z,97.80
2023-04-27T03:46:50.845Z,98.10
2023-04-27T03:47:54.604Z,97.80
2023-04-27T03:48:57.226Z,97.60
2023-04-27T03:50:01.903Z,97.50
2023-04-27T03:51:04.685Z,97.40
2023-04-27T03:52:08.851Z,97.60
2023-04-27T03:53:12.119Z,97.60
2023-04-27T03:54:16.826Z,97.10
2023-04-27T03:55:19.630Z,97.30
2023-04-27T03:56:23.253Z,96.50
2023-04-27T03:57:27.087Z,95.70
2023-04-27T03:58:31.264Z,94.90
2023-04-27T03:59:56.792Z,93.80
2023-04-27T04:01:02.598Z,92.20
2023-04-27T04:02:06.026Z,91.10
2023-04-27T04:03:09.956Z,89.40
2023-04-27T04:04:13.880Z,88.30
2023-04-27T04:05:19.974Z,86.70
2023-04-27T04:06:22.722Z,85.00
2023-04-27T04:07:26.763Z,83.90
2023-04-27T04:08:29.524Z,82.60
2023-04-27T04:09:33.707Z,81.80
2023-04-27T04:10:36.330Z,81.20
2023-04-27T04:11:40.721Z,79.90
2023-04-27T04:12:46.056Z,79.60
2023-04-27T04:13:49.610Z,79.30
2023-04-27T04:14:52.539Z,78.90
2023-04-27T04:16:06.842Z,78.50
2023-04-27T04:17:10.980Z,79.50
2023-04-27T04:18:16.675Z,78.30
2023-04-27T04:19:21.997Z,76.90
2023-04-27T04:20:25.893Z,77.50
2023-04-27T04:21:31.956Z,76.60
2023-04-27T04:22:34.700Z,77.10
2023-04-27T04:23:38.952Z,76.70
2023-04-27T04:24:42.288Z,76.60
2023-04-27T04:25:48.256Z,76.40
2023-04-27T04:26:50.865Z,76.60
2023-04-27T04:27:58.219Z,76.50
2023-04-27T04:29:02.516Z,75.40
2023-04-27T04:30:08.634Z,75.30
2023-04-27T04:31:16.018Z,75.00
2023-04-27T04:32:23.276Z,74.50
2023-04-27T04:33:27.735Z,74.30
2023-04-27T04:34:32.297Z,74.30
2023-04-27T04:35:39.258Z,73.60
2023-04-27T04:36:44.474Z,73.20
2023-04-27T04:37:48.617Z,73.00
2023-04-27T04:38:55.328Z,72.90
2023-04-27T04:39:59.151Z,72.20
2023-04-27T04:41:03.179Z,72.10
2023-04-27T04:42:08.936Z,71.40
2023-04-27T04:43:13.733Z,70.90
2023-04-27T04:44:17.239Z,70.90
2023-04-27T04:45:24.823Z,70.20
2023-04-27T04:46:29.400Z,70.20
2023-04-27T04:47:36.962Z,70.10
2023-04-27T04:48:40.097Z,69.10
2023-04-27T04:49:45.619Z,69.10
2023-04-27T04:50:50.872Z,67.90
2023-04-27T04:51:55.628Z,67.70
2023-04-27T04:52:59.929Z,67.00
2023-04-27T04:54:02.633Z,66.10
2023-04-27T04:55:10.835Z,66.10
2023-04-27T04:56:15.151Z,66.40
2023-04-27T04:57:18.728Z,66.20
2023-04-27T04:58:21.470Z,66.00
2023-04-27T04:59:25.481Z,65.50
2023-04-27T05:00:28.404Z,66.20
2023-04-27T05:01:34.678Z,65.10
2023-04-27T05:02:40.013Z,64.10
2023-04-27T05:03:44.676Z,64.30
2023-04-27T05:04:47.754Z,62.80
2023-04-27T05:05:53.931Z,62.30
2023-04-27T05:06:56.788Z,61.60
2023-04-27T05:08:05.369Z,61.20
2023-04-27T05:09:09.828Z,60.30
2023-04-27T05:10:12.453Z,59.70
2023-04-27T05:11:16.207Z,59.50
2023-04-27T05:12:19.149Z,59.50
2023-04-27T05:13:25.298Z,59.50
2023-04-27T05:14:29.176Z,59.40
2023-04-27T05:15:31.988Z,59.40
2023-04-27T05:16:37.527Z,58.90
2023-04-27T05:17:43.282Z,58.90
2023-04-27T05:18:47.855Z,59.00
2023-04-27T05:19:51.026Z,58.50
2023-04-27T05:20:54.848Z,58.10
2023-04-27T05:21:58.736Z,57.90
2023-04-27T05:23:03.112Z,57.70
2023-04-27T05:24:18.571Z,57.90
2023-04-27T05:25:21.440Z,57.60
2023-04-27T05:26:24.893Z,57.70
2023-04-27T05:27:27.899Z,57.30
2023-04-27T05:28:32.096Z,57.40
2023-04-27T05:29:35.102Z,56.90
2023-04-27T05:30:40.355Z,56.60
2023-04-27T05:31:44.556Z,56.60
2023-04-27T05:32:51.176Z,56.90
2023-04-27T05:33:55.459Z,56.60
2023-04-27T05:34:59.084Z,56.00
2023-04-27T05:36:01.816Z,56.40
2023-04-27T05:37:05.522Z,56.30
2023-04-27T05:38:09.620Z,56.30
2023-04-27T05:39:12.576Z,56.20
2023-04-27T05:40:17.260Z,57.00
2023-04-27T05:41:19.767Z,56.80
2023-04-27T05:42:23.469Z,56.40
2023-04-27T05:43:29.095Z,56.30
2023-04-27T05:44:32.887Z,56.20
2023-04-27T05:45:41.918Z,55.30
2023-04-27T05:46:46.766Z,55.00
2023-04-27T05:47:50.918Z,54.80
2023-04-27T05:48:54.043Z,54.80
2023-04-27T05:49:57.753Z,54.40
2023-04-27T05:51:02.054Z,54.40
2023-04-27T05:52:06.499Z,55.50
2023-04-27T05:53:09.377Z,54.20
2023-04-27T05:54:13.121Z,54.10
2023-04-27T05:55:18.558Z,54.00
2023-04-27T05:56:22.452Z,54.50
2023-04-27T05:57:26.586Z,54.50
2023-04-27T05:58:30.199Z,54.20
2023-04-27T05:59:34.150Z,54.30
2023-04-27T06:00:39.505Z,54.00
2023-04-27T06:01:44.000Z,54.50
2023-04-27T06:02:47.873Z,53.90
2023-04-27T06:03:51.742Z,53.60
2023-04-27T06:04:55.043Z,53.90
2023-04-27T06:06:02.565Z,53.30
2023-04-27T06:07:10.799Z,54.00
2023-04-27T06:08:13.823Z,53.70
2023-04-27T06:09:17.516Z,54.10
2023-04-27T06:10:20.194Z,52.80
2023-04-27T06:11:24.516Z,53.70
2023-04-27T06:12:28.003Z,53.90
2023-04-27T06:13:33.357Z,53.50
2023-04-27T06:14:39.119Z,53.50
2023-04-27T06:15:41.710Z,53.30
2023-04-27T06:16:45.761Z,53.70
2023-04-27T06:17:49.913Z,53.50
2023-04-27T06:18:53.545Z,53.00
2023-04-27T06:19:56.326Z,53.70
2023-04-27T06:21:03.536Z,54.80
2023-04-27T06:22:07.928Z,54.50
2023-04-27T06:23:12.281Z,54.50
2023-04-27T06:24:14.944Z,54.40
2023-04-27T06:25:21.062Z,53.70
2023-04-27T06:26:24.105Z,54.20
2023-04-27T06:27:27.936Z,53.10
2023-04-27T06:28:32.349Z,53.60
2023-04-27T06:29:35.029Z,53.50
2023-04-27T06:30:39.631Z,53.10
2023-04-27T06:31:43.050Z,53.60
2023-04-27T06:32:46.982Z,53.30
2023-04-27T06:33:52.323Z,52.40
2023-04-27T06:34:58.161Z,53.20
2023-04-27T06:36:03.527Z,52.90
2023-04-27T06:37:09.916Z,52.30
2023-04-27T06:38:14.092Z,66.30
2023-04-27T06:39:16.985Z,63.80
2023-04-27T06:40:20.969Z,59.20
2023-04-27T06:41:25.270Z,56.50
2023-04-27T06:42:34.478Z,56.40
2023-04-27T06:43:38.364Z,53.20
2023-04-27T06:44:43.099Z,55.00
2023-04-27T06:45:47.498Z,54.10
2023-04-27T06:46:54.113Z,54.10
2023-04-27T06:49:14.148Z,55.20
2023-04-27T06:50:50.016Z,54.30
2023-04-27T06:52:36.014Z,51.70
2023-04-27T06:53:40.118Z,52.80
2023-04-27T06:54:44.038Z,52.40
2023-04-27T06:55:48.630Z,52.60
2023-04-27T06:56:52.224Z,50.90
2023-04-27T06:57:56.890Z,51.80
2023-04-27T06:59:00.251Z,50.20
2023-04-27T07:00:05.973Z,49.00
2023-04-27T07:01:10.098Z,50.60
2023-04-27T07:02:13.748Z,50.30
2023-04-27T07:03:21.412Z,50.70
2023-04-27T07:04:26.260Z,49.50
2023-04-27T07:05:31.304Z,51.40
2023-04-27T07:06:35.422Z,52.40
2023-04-27T07:07:38.976Z,52.30
2023-04-27T07:09:04.551Z,50.80
2023-04-27T07:10:31.873Z,51.10
2023-04-27T07:11:49.438Z,50.80
2023-04-27T07:13:02.535Z,47.50
2023-04-27T07:14:10.285Z,48.20
2023-04-27T07:15:16.602Z,47.70
2023-04-27T07:16:27.205Z,48.00
2023-04-27T07:17:36.622Z,48.40
2023-04-27T07:19:00.155Z,49.20
2023-04-27T07:20:07.418Z,47.50
2023-04-27T07:21:11.789Z,46.50
2023-04-27T07:22:17.105Z,47.00
2023-04-27T07:23:19.952Z,47.10
2023-04-27T07:24:24.430Z,48.10
2023-04-27T07:25:30.832Z,48.00
2023-04-27T07:26:33.596Z,47.10
2023-04-27T07:27:37.472Z,47.00
2023-04-27T07:28:41.502Z,47.60
2023-04-27T07:29:45.281Z,47.20
2023-04-27T07:30:49.337Z,47.10
2023-04-27T07:31:53.986Z,45.90
2023-04-27T07:33:01.248Z,46.10
2023-04-27T07:34:04.206Z,46.20
2023-04-27T07:35:10.033Z,46.50
2023-04-27T07:36:15.369Z,47.20
2023-04-27T07:37:18.241Z,47.20
2023-04-27T07:38:23.551Z,47.30
2023-04-27T07:39:26.819Z,47.10
2023-04-27T07:40:33.172Z,47.90
2023-04-27T07:41:36.102Z,48.20
2023-04-27T07:42:41.476Z,48.20
2023-04-27T07:43:43.906Z,48.30
2023-04-27T07:44:47.739Z,48.10
2023-04-27T07:45:52.343Z,48.10
2023-04-27T07:46:58.554Z,48.90
2023-04-27T07:48:02.533Z,49.30
2023-04-27T07:49:09.448Z,49.00
2023-04-27T07:50:14.462Z,49.10
2023-04-27T07:51:19.575Z,49.00
2023-04-27T07:52:22.717Z,49.40
2023-04-27T07:53:26.807Z,49.00
2023-04-27T07:54:30.526Z,49.00
2023-04-27T07:55:34.160Z,49.00
2023-04-27T07:56:37.127Z,49.00
2023-04-27T07:57:41.123Z,49.10
2023-04-27T07:58:45.238Z,49.50
2023-04-27T07:59:49.143Z,55.80
2023-04-27T08:00:52.015Z,55.80
2023-04-27T08:02:04.209Z,53.10
2023-04-27T08:03:11.530Z,50.40
2023-04-27T08:04:16.721Z,52.50
2023-04-27T08:05:21.901Z,50.20
2023-04-27T08:06:28.913Z,49.70
2023-04-27T08:07:35.950Z,50.10
2023-04-27T08:08:42.361Z,49.40
2023-04-27T08:09:46.266Z,49.60
2023-04-27T08:10:49.198Z,51.10
2023-04-27T08:11:55.215Z,49.00
2023-04-27T08:12:58.754Z,50.90
2023-04-27T08:14:02.750Z,50.20
2023-04-27T08:15:08.396Z,48.90
2023-04-27T08:16:12.317Z,50.20
2023-04-27T08:17:17.561Z,48.10
2023-04-27T08:18:23.709Z,49.60
2023-04-27T08:19:27.933Z,48.80
2023-04-27T08:20:33.212Z,47.90
2023-04-27T08:21:38.509Z,47.80
2023-04-27T08:22:41.610Z,48.20
2023-04-27T08:23:48.085Z,48.90
2023-04-27T08:24:51.306Z,47.70
2023-04-27T08:26:00.217Z,49.60
2023-04-27T08:27:05.458Z,50.30
2023-04-27T08:28:10.015Z,51.90
2023-04-27T08:29:27.108Z,49.40
2023-04-27T08:30:33.047Z,49.50
2023-04-27T08:31:37.336Z,50.00
2023-04-27T08:32:40.144Z,49.60
2023-04-27T08:33:45.372Z,49.40
2023-04-27T08:34:50.704Z,47.10
2023-04-27T08:35:55.891Z,48.70
2023-04-27T08:37:00.999Z,47.60
2023-04-27T08:38:05.279Z,45.80
2023-04-27T08:39:08.078Z,47.50
2023-04-27T08:40:15.798Z,47.70
2023-04-27T08:41:24.168Z,47.10
2023-04-27T08:42:28.187Z,47.00
2023-04-27T08:43:34.953Z,47.40
2023-04-27T08:44:41.583Z,48.20
2023-04-27T08:45:52.251Z,46.80
2023-04-27T08:46:59.061Z,46.30
2023-04-27T08:48:02.130Z,47.10
2023-04-27T08:49:10.569Z,46.70
2023-04-27T08:50:13.543Z,48.30
2023-04-27T08:51:17.836Z,47.40
2023-04-27T08:52:22.742Z,47.20
2023-04-27T08:53:25.338Z,47.50
2023-04-27T08:54:29.599Z,48.60
2023-04-27T08:55:36.068Z,47.60
2023-04-27T08:56:39.906Z,47.00
2023-04-27T08:57:43.934Z,47.20
2023-04-27T08:58:47.905Z,46.30
2023-04-27T09:00:01.066Z,47.80
2023-04-27T09:01:07.894Z,47.60
2023-04-27T09:02:21.596Z,47.70
2023-04-27T09:03:26.637Z,46.70
2023-04-27T09:04:39.202Z,46.50
2023-04-27T09:06:00.586Z,47.90
2023-04-27T09:07:15.007Z,49.00
2023-04-27T09:08:19.431Z,48.60
2023-04-27T09:09:25.183Z,47.90
2023-04-27T09:10:29.792Z,47.90
2023-04-27T09:11:35.262Z,48.00
2023-04-27T09:12:39.257Z,48.80
2023-04-27T09:13:45.754Z,49.40
2023-04-27T09:15:00.078Z,48.50
2023-04-27T09:16:07.594Z,49.20
2023-04-27T09:17:12.032Z,50.00
2023-04-27T09:18:17.563Z,48.50
2023-04-27T09:19:27.491Z,48.50
2023-04-27T09:20:36.349Z,47.60
2023-04-27T09:21:39.845Z,47.70
2023-04-27T09:22:47.458Z,48.60
2023-04-27T09:23:55.880Z,50.00
2023-04-27T09:24:58.890Z,49.90
2023-04-27T09:26:05.992Z,50.00
2023-04-27T09:27:09.264Z,50.00
2023-04-27T09:28:16.772Z,48.70
2023-04-27T09:29:22.281Z,48.30
2023-04-27T09:30:29.597Z,49.10
2023-04-27T09:31:32.927Z,49.60
2023-04-27T09:32:39.904Z,50.20
2023-04-27T09:33:47.409Z,49.80
2023-04-27T09:34:54.101Z,49.90
2023-04-27T09:35:59.425Z,51.20
2023-04-27T09:37:06.492Z,51.30
2023-04-27T09:38:09.491Z,51.00
2023-04-27T09:39:15.336Z,50.80
2023-04-27T09:40:19.987Z,50.70
2023-04-27T09:41:28.507Z,49.80
2023-04-27T09:42:34.693Z,50.90
2023-04-27T09:43:39.671Z,50.40
2023-04-27T09:44:42.973Z,51.30
2023-04-27T09:45:47.517Z,51.70
2023-04-27T09:46:53.717Z,51.50
2023-04-27T09:48:06.079Z,51.70
2023-04-27T09:49:11.753Z,51.30
2023-04-27T09:50:16.585Z,50.50
2023-04-27T09:51:19.588Z,49.90
2023-04-27T09:52:26.617Z,50.30
2023-04-27T09:53:37.689Z,50.70
2023-04-27T09:54:46.818Z,51.20
2023-04-27T09:56:11.251Z,51.20
2023-04-27T09:57:30.461Z,51.80
2023-04-27T09:59:08.352Z,52.80
2023-04-27T10:00:26.420Z,53.70
2023-04-27T10:01:38.590Z,53.40
2023-04-27T10:02:54.629Z,54.00
2023-04-27T10:04:14.541Z,54.50
2023-04-27T10:06:04.533Z,54.40
2023-04-27T10:07:13.805Z,54.30
2023-04-27T10:08:18.742Z,55.30
2023-04-27T10:09:24.327Z,54.70
2023-04-27T10:10:29.691Z,55.00
2023-04-27T10:11:40.888Z,55.20
2023-04-27T10:12:44.884Z,54.70
2023-04-27T10:13:58.924Z,54.80
2023-04-27T10:15:14.609Z,54.90
2023-04-27T10:16:21.289Z,55.10
2023-04-27T10:17:32.242Z,54.80
2023-04-27T10:18:35.632Z,55.10
2023-04-27T10:19:40.065Z,55.30
2023-04-27T10:20:43.651Z,55.40
2023-04-27T10:22:00.337Z,55.00
2023-04-27T10:23:04.883Z,55.00
2023-04-27T10:24:11.979Z,54.20
2023-04-27T10:25:19.177Z,54.40
2023-04-27T10:26:32.348Z,53.80
2023-04-27T10:27:41.455Z,54.10
2023-04-27T10:28:46.521Z,54.70
2023-04-27T10:29:52.527Z,54.00
2023-04-27T10:30:57.044Z,53.90
2023-04-27T10:32:07.718Z,53.70
2023-04-27T10:33:13.281Z,54.30
2023-04-27T10:34:20.675Z,53.40
2023-04-27T10:35:35.269Z,53.30
2023-04-27T10:36:39.450Z,52.90
2023-04-27T10:37:44.514Z,53.20
2023-04-27T10:38:59.071Z,53.40
2023-04-27T10:40:13.507Z,53.70
2023-04-27T10:41:17.150Z,54.10
2023-04-27T10:42:34.582Z,54.50
2023-04-27T10:43:39.074Z,55.40
2023-04-27T10:44:41.868Z,56.40
2023-04-27T10:45:48.455Z,56.10
2023-04-27T10:46:52.768Z,56.20
2023-04-27T10:48:01.972Z,56.40
2023-04-27T10:49:06.801Z,56.60
2023-04-27T10:50:13.551Z,56.50
2023-04-27T10:51:17.979Z,56.40
2023-04-27T10:52:22.328Z,55.70
2023-04-27T10:53:27.219Z,55.50
2023-04-27T10:54:30.737Z,55.60
2023-04-27T10:55:35.666Z,55.40
2023-04-27T10:56:38.660Z,55.40
2023-04-27T10:57:50.655Z,54.80
2023-04-27T10:58:54.598Z,55.60
2023-04-27T10:59:57.270Z,55.20
2023-04-27T11:01:01.385Z,53.60
2023-04-27T11:02:04.283Z,55.10
2023-04-27T11:03:17.286Z,55.70
2023-04-27T11:05:30.563Z,55.30
2023-04-27T11:06:44.258Z,55.50
2023-04-27T11:07:49.257Z,55.00
2023-04-27T11:08:52.208Z,55.10
2023-04-27T11:09:57.781Z,55.90
2023-04-27T11:11:02.020Z,54.40
2023-04-27T11:12:09.307Z,54.90
2023-04-27T11:13:18.007Z,54.50
2023-04-27T11:14:22.682Z,53.90
2023-04-27T11:15:30.788Z,54.20
2023-04-27T11:16:35.247Z,54.00
2023-04-27T11:17:39.832Z,53.70
2023-04-27T11:18:44.493Z,55.20
2023-04-27T11:19:50.607Z,54.90
2023-04-27T11:20:56.469Z,55.20
2023-04-27T11:22:06.831Z,55.80
2023-04-27T11:23:13.502Z,56.80
2023-04-27T11:24:20.394Z,57.20
2023-04-27T11:25:29.120Z,55.50
2023-04-27T11:26:33.696Z,55.10
2023-04-27T11:27:40.048Z,55.20
2023-04-27T11:28:46.448Z,55.20
2023-04-27T11:29:50.814Z,55.00
2023-04-27T11:30:58.637Z,54.20
2023-04-27T11:32:03.124Z,56.40
2023-04-27T11:33:10.415Z,54.70
2023-04-27T11:34:19.382Z,54.80
2023-04-27T11:35:34.140Z,54.70
2023-04-27T11:36:37.920Z,54.10
2023-04-27T11:37:41.789Z,53.60
2023-04-27T11:38:45.884Z,54.10
2023-04-27T11:39:49.583Z,54.30
2023-04-27T11:41:04.088Z,53.30
2023-04-27T11:42:22.014Z,54.00
2023-04-27T11:43:31.167Z,54.40
2023-04-27T11:44:35.635Z,54.40
2023-04-27T11:45:47.702Z,53.20
2023-04-27T11:46:50.326Z,55.00
2023-04-27T11:47:54.279Z,54.60
2023-04-27T11:49:02.620Z,54.00
2023-04-27T11:50:09.070Z,53.80
2023-04-27T11:51:17.101Z,54.80
2023-04-27T11:52:21.702Z,63.10
2023-04-27T11:53:32.209Z,55.80
2023-04-27T11:54:37.118Z,54.70
2023-04-27T11:55:43.581Z,53.90
2023-04-27T11:56:48.132Z,53.50
2023-04-27T11:57:58.611Z,52.30
2023-04-27T11:59:02.494Z,51.00
2023-04-27T12:00:14.877Z,51.30
2023-04-27T12:01:24.848Z,51.40
2023-04-27T12:02:39.145Z,51.40
2023-04-27T12:03:43.693Z,51.30
2023-04-27T12:04:47.196Z,51.50
2023-04-27T12:05:51.695Z,51.30
2023-04-27T12:06:55.390Z,50.90
2023-04-27T12:07:59.981Z,50.40
2023-04-27T12:09:05.800Z,51.20
2023-04-27T12:10:11.572Z,50.30
2023-04-27T12:11:15.342Z,50.70
2023-04-27T12:12:22.235Z,50.90
2023-04-27T12:13:24.702Z,51.30
2023-04-27T12:14:38.114Z,51.10
2023-04-27T12:15:47.169Z,51.20
2023-04-27T12:16:50.987Z,51.60
2023-04-27T12:17:55.434Z,50.00
2023-04-27T12:18:58.110Z,49.20
2023-04-27T12:20:02.149Z,49.20
2023-04-27T12:21:08.527Z,49.70
2023-04-27T12:22:13.836Z,49.90
2023-04-27T12:23:16.248Z,49.80
2023-04-27T12:24:20.265Z,49.60
2023-04-27T12:25:23.237Z,50.00
2023-04-27T12:26:26.943Z,50.10
2023-04-27T12:27:30.603Z,50.00
2023-04-27T12:28:37.773Z,50.10
2023-04-27T12:29:44.438Z,50.20
2023-04-27T12:30:50.158Z,51.60
2023-04-27T12:31:53.962Z,50.00
2023-04-27T12:33:00.042Z,50.50
2023-04-27T12:34:04.792Z,50.20
2023-04-27T12:35:11.442Z,49.40
2023-04-27T12:36:14.109Z,49.40
2023-04-27T12:37:18.155Z,49.70
2023-04-27T12:38:20.908Z,50.20
2023-04-27T12:39:26.071Z,49.80
2023-04-27T12:40:29.949Z,50.10
2023-04-27T12:41:37.092Z,50.00
2023-04-27T12:42:43.588Z,49.80
2023-04-27T12:43:48.778Z,50.10
2023-04-27T12:44:53.084Z,49.80
2023-04-27T12:45:59.036Z,51.20
2023-04-27T12:47:01.964Z,49.00
2023-04-27T12:48:06.416Z,49.00
2023-04-27T12:49:11.676Z,48.40
2023-04-27T12:50:15.847Z,48.80
2023-04-27T12:51:22.144Z,48.30
2023-04-27T12:52:24.773Z,48.30
2023-04-27T12:53:29.923Z,48.50
2023-04-27T12:54:33.712Z,48.20
2023-04-27T12:55:37.692Z,48.20
2023-04-27T12:56:42.072Z,48.80
2023-04-27T12:57:44.678Z,48.90
2023-04-27T12:58:49.940Z,49.10
2023-04-27T12:59:52.733Z,48.80
2023-04-27T13:00:59.131Z,49.10
2023-04-27T13:02:04.025Z,47.50
2023-04-27T13:03:08.352Z,48.90
2023-04-27T13:04:22.253Z,48.20
2023-04-27T13:05:26.698Z,49.30
2023-04-27T13:06:32.548Z,49.20
2023-04-27T13:07:36.025Z,48.80
2023-04-27T13:08:41.976Z,49.30
2023-04-27T13:09:46.909Z,49.50
2023-04-27T13:10:50.838Z,49.00
2023-04-27T13:11:54.909Z,49.70
2023-04-27T13:12:58.094Z,49.80
2023-04-27T13:14:02.169Z,49.40
2023-04-27T13:15:08.774Z,49.60
2023-04-27T13:16:14.526Z,50.10
2023-04-27T13:17:18.016Z,50.30
2023-04-27T13:18:23.067Z,50.70
2023-04-27T13:19:26.004Z,50.60
2023-04-27T13:20:29.889Z,50.40
2023-04-27T13:21:34.784Z,49.60
2023-04-27T13:22:40.132Z,50.20
2023-04-27T13:23:47.869Z,49.40
2023-04-27T13:24:51.016Z,50.30
2023-04-27T13:25:54.752Z,50.10
2023-04-27T13:26:58.999Z,50.30
2023-04-27T13:28:02.148Z,50.30
2023-04-27T13:29:05.763Z,49.80
2023-04-27T13:30:12.929Z,50.30
2023-04-27T13:31:19.212Z,49.40
2023-04-27T13:32:22.368Z,50.20
2023-04-27T13:33:26.964Z,50.20
2023-04-27T13:34:30.756Z,50.20
2023-04-27T13:35:34.636Z,49.80
2023-04-27T13:36:38.247Z,50.50
2023-04-27T13:37:43.505Z,50.30
2023-04-27T13:38:47.245Z,50.20
2023-04-27T13:39:50.130Z,50.30
2023-04-27T13:40:56.190Z,50.10
2023-04-27T13:41:59.831Z,50.50
2023-04-27T13:43:03.815Z,50.50
2023-04-27T13:45:13.907Z,49.90
2023-04-27T13:46:19.199Z,50.60
2023-04-27T13:47:23.131Z,50.20
2023-04-27T13:48:27.533Z,50.40
2023-04-27T13:49:30.893Z,50.30
2023-04-27T13:50:35.505Z,49.90
2023-04-27T13:51:40.859Z,51.40
2023-04-27T13:52:46.540Z,49.80
2023-04-27T13:53:50.982Z,50.20
2023-04-27T13:54:53.704Z,50.20
2023-04-27T13:55:59.544Z,51.70
2023-04-27T13:57:03.945Z,49.50
2023-04-27T13:58:07.539Z,49.30
2023-04-27T13:59:11.291Z,49.60
2023-04-27T14:00:17.029Z,48.80
2023-04-27T14:01:22.541Z,48.60
2023-04-27T14:02:25.630Z,49.50
2023-04-27T14:03:30.327Z,49.90
2023-04-27T14:04:36.603Z,50.10
2023-04-27T14:05:42.255Z,49.80
2023-04-27T14:06:46.974Z,50.30
2023-04-27T14:07:50.909Z,49.10